createdAt,value
2022-07-25T00:00:47.932Z,99729.59
2022-07-25T00:03:16.827Z,99729.19
2022-07-25T00:05:47.607Z,99719.38
2022-07-25T00:08:16.265Z,99729.44
2022-07-25T00:10:45.147Z,99722.59
2022-07-25T00:13:13.878Z,99728.13
2022-07-25T00:15:42.611Z,99721.84
2022-07-25T00:18:11.393Z,99718.97
2022-07-25T00:20:40.039Z,99724.38
2022-07-25T00:23:09.421Z,99721.00
2022-07-25T00:25:38.056Z,99717.81
2022-07-25T00:28:06.764Z,99718.50
2022-07-25T00:30:34.582Z,99716.56
2022-07-25T00:33:03.117Z,99717.66
2022-07-25T00:35:31.742Z,99707.38
2022-07-25T00:37:59.562Z,99708.75
2022-07-25T00:40:28.184Z,99720.22
2022-07-25T00:42:56.873Z,99715.97
2022-07-25T00:45:25.395Z,99716.16
2022-07-25T00:47:54.171Z,99709.84
2022-07-25T00:50:23.368Z,99715.66
2022-07-25T00:52:52.520Z,99716.63
2022-07-25T00:55:22.547Z,99715.66
2022-07-25T00:57:52.238Z,99713.47
2022-07-25T01:00:21.031Z,99717.59
2022-07-25T01:02:49.030Z,99715.69
2022-07-25T01:05:19.663Z,99706.47
2022-07-25T01:07:48.607Z,99712.22
2022-07-25T01:10:17.319Z,99707.84
2022-07-25T01:12:56.474Z,99707.25
2022-07-25T01:15:27.303Z,99713.31
2022-07-25T01:17:56.575Z,99710.50
2022-07-25T01:20:29.140Z,99705.72
2022-07-25T01:22:58.586Z,99711.69
2022-07-25T01:25:28.473Z,99709.00
2022-07-25T01:27:58.058Z,99713.75
2022-07-25T01:30:26.997Z,99703.41
2022-07-25T01:32:55.699Z,99704.81
2022-07-25T01:35:24.597Z,99709.63
2022-07-25T01:37:53.250Z,99712.63
2022-07-25T01:40:22.040Z,99707.78
2022-07-25T01:42:49.844Z,99706.22
2022-07-25T01:45:18.570Z,99708.78
2022-07-25T01:47:47.218Z,99702.91
2022-07-25T01:50:15.999Z,99703.38
2022-07-25T01:52:44.763Z,99702.09
2022-07-25T01:55:13.586Z,99703.25
2022-07-25T01:57:49.468Z,99698.94
2022-07-25T02:00:19.073Z,99696.06
2022-07-25T02:02:47.758Z,99698.09
2022-07-25T02:05:16.690Z,99699.22
2022-07-25T02:07:45.337Z,99697.38
2022-07-25T02:10:14.872Z,99695.22
2022-07-25T02:12:43.494Z,99694.22
2022-07-25T02:15:12.575Z,99696.78
2022-07-25T02:17:41.226Z,99689.19
2022-07-25T02:20:11.156Z,99697.47
2022-07-25T02:22:39.889Z,99700.50
2022-07-25T02:25:09.166Z,99697.72
2022-07-25T02:27:38.303Z,99698.63
2022-07-25T02:30:09.039Z,99703.25
2022-07-25T02:32:37.974Z,99694.94
2022-07-25T02:35:12.933Z,99699.22
2022-07-25T02:37:42.816Z,99703.22
2022-07-25T02:40:12.601Z,99683.78
2022-07-25T02:42:42.103Z,99691.94
2022-07-25T02:45:11.138Z,99686.63
2022-07-25T02:47:39.903Z,99686.91
2022-07-25T02:50:09.395Z,99690.59
2022-07-25T02:52:44.451Z,99694.97
2022-07-25T02:55:12.483Z,99699.59
2022-07-25T02:57:41.084Z,99702.06
2022-07-25T03:00:11.259Z,99702.47
2022-07-25T03:02:40.129Z,99709.94
2022-07-25T03:05:15.531Z,99709.06
2022-07-25T03:07:46.166Z,99707.03
2022-07-25T03:10:16.094Z,99715.16
2022-07-25T03:12:45.779Z,99705.91
2022-07-25T03:15:14.931Z,99708.69
2022-07-25T03:17:44.070Z,99707.69
2022-07-25T03:20:13.748Z,99712.97
2022-07-25T03:22:42.550Z,99720.81
2022-07-25T03:25:15.837Z,99722.28
2022-07-25T03:27:50.922Z,99718.50
2022-07-25T03:30:20.818Z,99722.81
2022-07-25T03:32:50.360Z,99722.81
2022-07-25T03:35:19.032Z,99717.09
2022-07-25T03:37:47.813Z,99716.88
2022-07-25T03:40:16.463Z,99724.50
2022-07-25T03:42:45.949Z,99720.94
2022-07-25T03:45:14.657Z,99727.16
2022-07-25T03:47:43.274Z,99723.13
2022-07-25T03:50:13.022Z,99726.53
2022-07-25T03:52:41.728Z,99726.69
2022-07-25T03:55:12.227Z,99729.28
2022-07-25T03:57:41.136Z,99730.97
2022-07-25T04:00:12.651Z,99722.81
2022-07-25T04:02:41.644Z,99732.53
2022-07-25T04:05:11.610Z,99726.25
2022-07-25T04:07:40.282Z,99726.09
2022-07-25T04:10:09.449Z,99728.97
2022-07-25T04:12:39.102Z,99733.69
2022-07-25T04:15:08.868Z,99731.53
2022-07-25T04:17:38.865Z,99730.38
2022-07-25T04:20:09.122Z,99735.09
2022-07-25T04:22:37.172Z,99737.22
2022-07-25T04:25:07.648Z,99737.34
2022-07-25T04:27:36.293Z,99734.28
2022-07-25T04:30:05.605Z,99728.91
2022-07-25T04:32:34.208Z,99727.81
2022-07-25T04:35:02.837Z,99723.88
2022-07-25T04:37:30.542Z,99733.50
2022-07-25T04:39:59.161Z,99726.28
2022-07-25T04:42:28.134Z,99729.38
2022-07-25T04:44:56.794Z,99734.28
2022-07-25T04:47:25.444Z,99727.22
2022-07-25T04:49:55.331Z,99730.84
2022-07-25T04:52:23.930Z,99734.19
2022-07-25T04:54:52.605Z,99733.81
2022-07-25T04:57:21.411Z,99738.25
2022-07-25T04:59:50.013Z,99726.41
2022-07-25T05:02:19.503Z,99738.22
2022-07-25T05:04:48.222Z,99743.50
2022-07-25T05:07:20.854Z,99744.19
2022-07-25T05:09:48.605Z,99744.66
2022-07-25T05:12:16.412Z,99741.34
2022-07-25T05:14:45.686Z,99742.13
2022-07-25T05:17:14.507Z,99739.31
2022-07-25T05:19:43.095Z,99746.84
2022-07-25T05:22:11.704Z,99743.00
2022-07-25T05:24:40.347Z,99744.41
2022-07-25T05:27:08.941Z,99744.25
2022-07-25T05:29:37.600Z,99752.69
2022-07-25T05:32:06.577Z,99746.56
2022-07-25T05:34:35.293Z,99749.47
2022-07-25T05:37:03.859Z,99752.22
2022-07-25T05:39:32.467Z,99750.34
2022-07-25T05:42:01.090Z,99738.81
2022-07-25T05:44:29.689Z,99749.41
2022-07-25T05:46:58.439Z,99748.34
2022-07-25T05:49:27.265Z,99744.03
2022-07-25T05:51:55.883Z,99746.66
2022-07-25T05:54:24.557Z,99742.81
2022-07-25T05:56:56.182Z,99748.28
2022-07-25T05:59:24.827Z,99746.84
2022-07-25T06:01:53.750Z,99750.25
2022-07-25T06:04:27.005Z,99750.88
2022-07-25T06:06:56.190Z,99747.31
2022-07-25T06:09:25.303Z,99751.09
2022-07-25T06:12:00.116Z,99752.22
2022-07-25T06:14:30.455Z,99746.69
2022-07-25T06:16:59.278Z,99748.78
2022-07-25T06:19:27.985Z,99746.13
2022-07-25T06:21:56.598Z,99748.09
2022-07-25T06:24:25.251Z,99746.78
2022-07-25T06:26:53.858Z,99748.88
2022-07-25T06:29:22.432Z,99751.03
2022-07-25T06:31:51.184Z,99745.38
2022-07-25T06:34:19.898Z,99743.19
2022-07-25T06:36:48.617Z,99746.91
2022-07-25T06:39:17.227Z,99736.38
2022-07-25T06:41:45.687Z,99746.47
2022-07-25T06:44:14.295Z,99743.72
2022-07-25T06:46:42.899Z,99744.63
2022-07-25T06:49:11.690Z,99737.59
2022-07-25T06:51:40.307Z,99741.47
2022-07-25T06:54:09.399Z,99737.59
2022-07-25T06:56:38.398Z,99744.06
2022-07-25T06:59:06.859Z,99736.97
2022-07-25T07:01:35.616Z,99738.97
2022-07-25T07:04:05.121Z,99736.25
2022-07-25T07:06:34.042Z,99730.09
2022-07-25T07:09:02.524Z,99732.00
2022-07-25T07:11:31.147Z,99738.81
2022-07-25T07:13:59.655Z,99740.69
2022-07-25T07:16:28.540Z,99739.69
2022-07-25T07:18:57.821Z,99736.69
2022-07-25T07:21:26.572Z,99729.88
2022-07-25T07:23:55.080Z,99730.69
2022-07-25T07:26:25.538Z,99735.69
2022-07-25T07:28:55.347Z,99732.16
2022-07-25T07:31:24.118Z,99736.47
2022-07-25T07:33:52.810Z,99736.59
2022-07-25T07:36:22.390Z,99730.66
2022-07-25T07:38:50.899Z,99732.94
2022-07-25T07:41:19.805Z,99742.84
2022-07-25T07:43:48.538Z,99734.28
2022-07-25T07:46:17.036Z,99729.66
2022-07-25T07:48:45.624Z,99735.03
2022-07-25T07:51:14.089Z,99737.75
2022-07-25T07:54:04.167Z,99732.16
2022-07-25T07:56:32.742Z,99728.94
2022-07-25T07:59:01.514Z,99740.72
2022-07-25T08:01:30.122Z,99740.84
2022-07-25T08:03:58.785Z,99738.91
2022-07-25T08:06:28.074Z,99744.06
2022-07-25T08:08:56.601Z,99742.38
2022-07-25T08:11:26.522Z,99730.97
2022-07-25T08:13:55.041Z,99728.41
2022-07-25T08:16:23.517Z,99736.00
2022-07-25T08:18:52.044Z,99732.19
2022-07-25T08:21:20.461Z,99730.03
2022-07-25T08:23:48.928Z,99725.50
2022-07-25T08:26:17.433Z,99729.63
2022-07-25T08:28:46.444Z,99726.31
2022-07-25T08:31:15.780Z,99717.84
2022-07-25T08:33:44.270Z,99729.72
2022-07-25T08:36:12.781Z,99727.31
2022-07-25T08:38:41.228Z,99723.53
2022-07-25T08:41:09.795Z,99717.31
2022-07-25T08:43:39.618Z,99714.28
2022-07-25T08:46:08.470Z,99715.09
2022-07-25T08:48:39.125Z,99710.72
2022-07-25T08:51:08.234Z,99709.09
2022-07-25T08:53:37.980Z,99705.78
2022-07-25T08:56:14.543Z,99704.88
2022-07-25T08:58:44.777Z,99704.56
2022-07-25T09:01:14.444Z,99703.53
2022-07-25T09:03:44.374Z,99708.19
2022-07-25T09:06:22.302Z,99697.88
2022-07-25T09:09:00.538Z,99699.97
2022-07-25T09:11:36.999Z,99706.88
2022-07-25T09:14:11.328Z,99699.56
2022-07-25T09:16:46.843Z,99700.19
2022-07-25T09:19:22.495Z,99694.78
2022-07-25T09:22:07.423Z,99693.13
2022-07-25T09:24:46.242Z,99684.03
2022-07-25T09:27:17.721Z,99688.09
2022-07-25T09:29:46.370Z,99684.38
2022-07-25T09:32:22.365Z,99679.94
2022-07-25T09:34:52.142Z,99691.22
2022-07-25T09:37:27.412Z,99687.41
2022-07-25T09:39:55.858Z,99677.13
2022-07-25T09:42:29.570Z,99673.66
2022-07-25T09:45:14.719Z,99672.41
2022-07-25T09:48:00.913Z,99661.44
2022-07-25T09:50:33.098Z,99665.53
2022-07-25T09:53:03.391Z,99664.78
2022-07-25T09:55:32.380Z,99666.22
2022-07-25T09:58:00.932Z,99657.78
2022-07-25T10:00:33.828Z,99659.09
2022-07-25T10:03:29.884Z,99651.84
2022-07-25T10:06:36.730Z,99653.72
2022-07-25T10:09:13.170Z,99654.69
2022-07-25T10:12:05.744Z,99648.56
2022-07-25T10:14:36.515Z,99638.84
2022-07-25T10:17:06.131Z,99645.66
2022-07-25T10:19:50.219Z,99635.94
2022-07-25T10:22:46.344Z,99634.50
2022-07-25T10:25:19.464Z,99637.16
2022-07-25T10:28:01.275Z,99631.81
2022-07-25T10:30:38.676Z,99631.00
2022-07-25T10:33:19.000Z,99624.59
2022-07-25T10:35:47.626Z,99618.28
2022-07-25T10:38:28.358Z,99611.22
2022-07-25T10:40:57.686Z,99609.94
2022-07-25T10:43:28.218Z,99606.94
2022-07-25T10:46:00.534Z,99600.66
2022-07-25T10:48:33.480Z,99599.25
2022-07-25T10:51:12.797Z,99598.72
2022-07-25T10:53:44.805Z,99603.69
2022-07-25T10:56:29.207Z,99614.56
2022-07-25T10:59:03.108Z,99583.41
2022-07-25T11:01:37.014Z,99589.63
2022-07-25T11:04:16.040Z,99577.03
2022-07-25T11:06:44.555Z,99577.63
2022-07-25T11:09:25.027Z,99568.88
2022-07-25T11:12:00.422Z,99561.09
2022-07-25T11:14:34.129Z,99571.22
2022-07-25T11:17:23.984Z,99564.13
2022-07-25T11:20:05.898Z,99554.72
2022-07-25T11:22:35.608Z,99561.66
2022-07-25T11:25:14.906Z,99540.94
2022-07-25T11:27:43.587Z,99552.50
2022-07-25T11:30:14.225Z,99538.47
2022-07-25T11:32:54.675Z,99538.94
2022-07-25T11:35:30.214Z,99535.56
2022-07-25T11:38:03.428Z,99534.50
2022-07-25T11:40:32.870Z,99527.19
2022-07-25T11:43:01.632Z,99531.94
2022-07-25T11:45:35.055Z,99531.69
2022-07-25T11:48:09.052Z,99522.25
2022-07-25T11:50:44.706Z,99523.97
2022-07-25T11:53:18.479Z,99511.09
2022-07-25T11:55:47.483Z,99511.88
2022-07-25T11:58:18.425Z,99510.22
2022-07-25T12:00:50.154Z,99505.19
2022-07-25T12:03:23.447Z,99496.38
2022-07-25T12:05:52.253Z,99489.94
2022-07-25T12:08:24.014Z,99492.78
2022-07-25T12:10:52.546Z,99488.19
2022-07-25T12:13:32.762Z,99479.16
2022-07-25T12:16:01.449Z,99477.25
2022-07-25T12:18:30.101Z,99475.84
2022-07-25T12:20:58.836Z,99478.28
2022-07-25T12:23:27.329Z,99471.56
2022-07-25T12:25:55.900Z,99460.53
2022-07-25T12:28:24.474Z,99465.50
2022-07-25T12:30:56.550Z,99451.16
2022-07-25T12:33:25.972Z,99443.84
2022-07-25T12:35:54.547Z,99443.31
2022-07-25T12:38:23.031Z,99443.84
2022-07-25T12:40:52.329Z,99437.56
2022-07-25T12:43:21.407Z,99438.59
2022-07-25T12:45:50.306Z,99428.97
2022-07-25T12:48:18.886Z,99434.97
2022-07-25T12:50:48.420Z,99429.41
2022-07-25T12:53:16.889Z,99427.09
2022-07-25T12:55:45.358Z,99426.06
2022-07-25T12:58:15.284Z,99422.88
2022-07-25T13:00:44.654Z,99422.38
2022-07-25T13:03:14.745Z,99421.47
2022-07-25T13:05:43.324Z,99416.84
2022-07-25T13:08:11.755Z,99415.81
2022-07-25T13:10:40.246Z,99406.09
2022-07-25T13:13:08.655Z,99409.31
2022-07-25T13:15:37.302Z,99398.44
2022-07-25T13:18:06.296Z,99402.41
2022-07-25T13:20:37.590Z,99396.63
2022-07-25T13:23:06.448Z,99381.97
2022-07-25T13:25:36.165Z,99389.13
2022-07-25T13:28:08.513Z,99375.22
2022-07-25T13:30:39.736Z,99374.97
2022-07-25T13:33:10.134Z,99365.84
2022-07-25T13:35:39.605Z,99370.03
2022-07-25T13:38:11.527Z,99356.56
2022-07-25T13:40:43.529Z,99359.38
2022-07-25T13:43:14.265Z,99350.72
2022-07-25T13:45:43.741Z,99350.31
2022-07-25T13:48:28.830Z,99346.81
2022-07-25T13:50:59.379Z,99333.59
2022-07-25T13:53:30.489Z,99334.63
2022-07-25T13:56:00.821Z,99338.16
2022-07-25T13:58:30.063Z,99329.72
2022-07-25T14:00:58.941Z,99337.44
2022-07-25T14:03:27.417Z,99328.41
2022-07-25T14:05:55.907Z,99329.97
2022-07-25T14:08:26.447Z,99324.13
2022-07-25T14:10:55.088Z,99314.47
2022-07-25T14:13:23.685Z,99315.69
2022-07-25T14:15:52.511Z,99319.91
2022-07-25T14:18:21.317Z,99315.56
2022-07-25T14:20:50.801Z,99316.59
2022-07-25T14:23:19.922Z,99312.06
2022-07-25T14:25:48.356Z,99304.91
2022-07-25T14:28:16.910Z,99301.06
2022-07-25T14:30:45.403Z,99298.72
2022-07-25T14:33:13.957Z,99292.97
2022-07-25T14:35:42.466Z,99300.94
2022-07-25T14:38:11.502Z,99291.06
2022-07-25T14:40:39.971Z,99292.03
2022-07-25T14:43:08.669Z,99281.75
2022-07-25T14:45:37.275Z,99279.13
2022-07-25T14:48:08.553Z,99282.50
2022-07-25T14:50:37.013Z,99282.25
2022-07-25T14:53:05.394Z,99275.25
2022-07-25T14:55:33.829Z,99282.00
2022-07-25T14:58:03.859Z,99278.13
2022-07-25T15:00:33.962Z,99279.09
2022-07-25T15:03:02.543Z,99277.47
2022-07-25T15:05:31.098Z,99264.75
2022-07-25T15:07:59.493Z,99255.09
2022-07-25T15:10:27.979Z,99266.56
2022-07-25T15:13:13.936Z,99262.03
2022-07-25T15:15:45.261Z,99257.78
2022-07-25T15:18:14.922Z,99253.00
2022-07-25T15:20:43.443Z,99247.25
2022-07-25T15:23:11.982Z,99248.00
2022-07-25T15:28:29.382Z,99239.22
2022-07-25T15:30:57.854Z,99235.09
2022-07-25T15:33:26.457Z,99229.19
2022-07-25T15:35:55.507Z,99233.72
2022-07-25T15:38:25.305Z,99233.25
2022-07-25T15:40:53.821Z,99224.03
2022-07-25T15:43:22.291Z,99226.16
2022-07-25T15:45:51.253Z,99223.13
2022-07-25T15:48:20.054Z,99223.75
2022-07-25T15:50:51.869Z,99212.28
2022-07-25T15:53:20.418Z,99221.91
2022-07-25T15:55:50.855Z,99216.25
2022-07-25T15:58:19.314Z,99214.44
2022-07-25T16:00:49.061Z,99211.16
2022-07-25T16:03:17.647Z,99214.72
2022-07-25T16:05:46.100Z,99204.31
2022-07-25T16:08:14.484Z,99204.81
2022-07-25T16:10:43.035Z,99200.81
2022-07-25T16:13:11.515Z,99206.47
2022-07-25T16:15:40.304Z,99208.38
2022-07-25T16:18:08.766Z,99207.75
2022-07-25T16:20:37.340Z,99206.28
2022-07-25T16:23:05.840Z,99210.81
2022-07-25T16:25:34.412Z,99199.47
2022-07-25T16:28:02.817Z,99203.38
2022-07-25T16:30:31.264Z,99201.06
2022-07-25T16:32:59.777Z,99207.06
2022-07-25T16:35:28.264Z,99204.28
2022-07-25T16:37:56.669Z,99198.13
2022-07-25T16:40:30.247Z,99203.41
2022-07-25T16:42:59.957Z,99196.13
2022-07-25T16:45:29.454Z,99197.13
2022-07-25T16:47:58.030Z,99201.50
2022-07-25T16:50:26.523Z,99196.22
2022-07-25T16:52:55.018Z,99199.97
2022-07-25T16:55:23.574Z,99199.31
2022-07-25T16:57:52.023Z,99206.56
2022-07-25T17:00:21.075Z,99202.28
2022-07-25T17:02:49.913Z,99204.66
2022-07-25T17:05:18.774Z,99196.69
2022-07-25T17:07:58.682Z,99207.53
2022-07-25T17:10:30.097Z,99195.75
2022-07-25T17:12:58.631Z,99190.69
2022-07-25T17:15:28.649Z,99187.09
2022-07-25T17:17:57.111Z,99192.06
2022-07-25T17:20:25.998Z,99192.75
2022-07-25T17:22:55.255Z,99187.59
2022-07-25T17:25:23.747Z,99188.47
2022-07-25T17:27:52.274Z,99190.38
2022-07-25T17:30:20.800Z,99188.72
2022-07-25T17:32:49.301Z,99183.81
2022-07-25T17:35:18.552Z,99176.09
2022-07-25T17:37:47.474Z,99186.53
2022-07-25T17:40:16.970Z,99169.72
2022-07-25T17:42:47.533Z,99180.94
2022-07-25T17:45:17.199Z,99172.66
2022-07-25T17:47:45.981Z,99167.91
2022-07-25T17:50:16.999Z,99171.78
2022-07-25T17:52:45.734Z,99166.66
2022-07-25T17:55:14.392Z,99158.28
2022-07-25T17:57:44.348Z,99162.00
2022-07-25T18:00:14.805Z,99158.63
2022-07-25T18:02:43.471Z,99151.16
2022-07-25T18:05:13.640Z,99155.38
2022-07-25T18:07:45.409Z,99151.94
2022-07-25T18:10:14.669Z,99149.28
2022-07-25T18:12:43.555Z,99151.66
2022-07-25T18:15:15.062Z,99146.69
2022-07-25T18:17:46.194Z,99145.00
2022-07-25T18:20:16.643Z,99143.88
2022-07-25T18:22:45.642Z,99148.78
2022-07-25T18:25:15.770Z,99152.50
2022-07-25T18:27:47.771Z,99151.81
2022-07-25T18:30:17.081Z,99143.47
2022-07-25T18:32:46.001Z,99142.69
2022-07-25T18:35:15.452Z,99137.59
2022-07-25T18:37:45.349Z,99143.56
2022-07-25T18:40:14.908Z,99138.50
2022-07-25T18:42:43.485Z,99134.66
2022-07-25T18:45:13.425Z,99133.44
2022-07-25T18:47:42.163Z,99133.38
2022-07-25T18:50:12.750Z,99134.88
2022-07-25T18:52:42.278Z,99133.94
2022-07-25T18:55:13.414Z,99126.56
2022-07-25T18:57:41.997Z,99131.56
2022-07-25T19:00:11.292Z,99139.09
2022-07-25T19:02:39.880Z,99137.38
2022-07-25T19:05:09.219Z,99133.50
2022-07-25T19:07:40.223Z,99129.94
2022-07-25T19:10:10.139Z,99136.44
2022-07-25T19:12:39.984Z,99128.56
2022-07-25T19:15:09.271Z,99130.00
2022-07-25T19:17:37.871Z,99127.13
2022-07-25T19:20:07.846Z,99133.50
2022-07-25T19:22:36.329Z,99136.19
2022-07-25T19:25:08.617Z,99134.63
2022-07-25T19:27:39.132Z,99136.38
2022-07-25T19:30:16.848Z,99137.34
2022-07-25T19:32:46.535Z,99134.06
2022-07-25T19:35:26.295Z,99134.41
2022-07-25T19:37:56.048Z,99135.09
2022-07-25T19:40:25.640Z,99127.31
2022-07-25T19:42:56.475Z,99126.75
2022-07-25T19:45:25.506Z,99123.44
2022-07-25T19:47:54.347Z,99122.72
2022-07-25T19:50:22.821Z,99124.78
2022-07-25T19:52:51.487Z,99119.25
2022-07-25T19:55:20.421Z,99118.53
2022-07-25T19:57:49.226Z,99114.72
2022-07-25T20:07:52.624Z,99113.34
2022-07-25T20:10:21.992Z,99112.25
2022-07-25T20:12:50.528Z,99113.63
2022-07-25T20:15:19.046Z,99110.03
2022-07-25T20:17:50.291Z,99106.97
2022-07-25T20:20:18.791Z,99100.81
2022-07-25T20:22:50.541Z,99107.34
2022-07-25T20:25:21.926Z,99103.00
2022-07-25T20:27:50.384Z,99098.94
2022-07-25T20:30:19.727Z,99103.63
2022-07-25T20:32:48.463Z,99102.19
2022-07-25T20:35:16.917Z,99100.16
2022-07-25T20:37:46.514Z,99097.81
2022-07-25T20:40:16.298Z,99103.69
2022-07-25T20:42:45.806Z,99100.09
2022-07-25T20:45:15.396Z,99096.31
2022-07-25T20:47:44.920Z,99099.72
2022-07-25T20:50:14.482Z,99092.91
2022-07-25T20:52:43.027Z,99092.47
2022-07-25T20:55:11.522Z,99086.38
2022-07-25T20:57:41.074Z,99090.25
2022-07-25T21:00:11.053Z,99098.06
2022-07-25T21:02:40.908Z,99099.75
2022-07-25T21:05:10.606Z,99094.00
2022-07-25T21:07:40.101Z,99102.72
2022-07-25T21:10:10.200Z,99100.03
2022-07-25T21:12:38.929Z,99100.16
2022-07-25T21:15:09.215Z,99099.66
2022-07-25T21:17:38.815Z,99108.25
2022-07-25T21:20:08.859Z,99094.28
2022-07-25T21:22:41.194Z,99091.75
2022-07-25T21:25:10.991Z,99098.53
2022-07-25T21:27:40.601Z,99093.25
2022-07-25T21:30:11.910Z,99091.59
2022-07-25T21:32:41.664Z,99089.38
2022-07-25T21:35:11.283Z,99094.28
2022-07-25T21:37:40.149Z,99092.22
2022-07-25T21:40:10.130Z,99086.91
2022-07-25T21:42:38.775Z,99094.81
2022-07-25T21:45:08.937Z,99091.22
2022-07-25T21:47:37.485Z,99080.50
2022-07-25T21:50:25.233Z,99082.41
2022-07-25T21:52:55.538Z,99086.00
2022-07-25T21:55:23.570Z,99082.91
2022-07-25T21:57:53.099Z,99078.63
2022-07-25T22:00:23.319Z,99078.50
2022-07-25T22:02:51.916Z,99083.25
2022-07-25T22:05:20.551Z,99084.63
2022-07-25T22:07:49.713Z,99083.06
2022-07-25T22:10:22.492Z,99085.63
2022-07-25T22:12:50.891Z,99079.09
2022-07-25T22:15:19.440Z,99084.94
2022-07-25T22:17:49.762Z,99071.31
2022-07-25T22:20:20.603Z,99073.72
2022-07-25T22:22:49.873Z,99075.94
2022-07-25T22:25:18.294Z,99069.44
2022-07-25T22:27:46.797Z,99068.22
2022-07-25T22:30:19.080Z,99065.59
2022-07-25T22:32:50.941Z,99074.56
2022-07-25T22:35:19.847Z,99081.97
2022-07-25T22:37:47.639Z,99081.44
2022-07-25T22:40:16.241Z,99077.59
2022-07-25T22:42:45.777Z,99075.56
2022-07-25T22:45:14.387Z,99073.47
2022-07-25T22:47:42.869Z,99070.44
2022-07-25T22:50:12.435Z,99078.88
2022-07-25T22:52:42.276Z,99077.88
2022-07-25T22:55:11.460Z,99078.00
2022-07-25T22:57:39.176Z,99078.59
2022-07-25T23:00:12.044Z,99076.56
2022-07-25T23:02:41.394Z,99075.13
2022-07-25T23:05:10.424Z,99082.69
2022-07-25T23:07:40.578Z,99078.69
2022-07-25T23:10:10.364Z,99094.84
2022-07-25T23:12:40.049Z,99089.81
2022-07-25T23:15:10.187Z,99098.19
2022-07-25T23:17:38.863Z,99094.56
2022-07-25T23:20:09.917Z,99095.47
2022-07-25T23:22:38.378Z,99097.28
2022-07-25T23:25:10.663Z,99089.16
2022-07-25T23:27:39.288Z,99085.31
2022-07-25T23:30:09.365Z,99089.28
2022-07-25T23:32:40.811Z,99090.91
2022-07-25T23:35:10.726Z,99091.03
2022-07-25T23:37:39.605Z,99087.50
2022-07-25T23:40:10.186Z,99087.59
2022-07-25T23:42:37.956Z,99089.09
2022-07-25T23:45:08.725Z,99094.56
2022-07-25T23:47:41.355Z,99093.59
2022-07-25T23:50:12.675Z,99090.19
2022-07-25T23:52:40.567Z,99105.88
2022-07-25T23:55:09.948Z,99097.50
2022-07-25T23:57:39.912Z,99099.78
